sensor_id;sensor_type;location;lat;lon;timestamp;pressure;altitude;pressure_sealevel;temperature;humidity
19510;BME280;9896;42.486;26.506;2022-07-29T00:01:00;99833.63;;;22.24;61.23
19510;BME280;9896;42.486;26.506;2022-07-29T00:03:25;99824.22;;;22.40;60.45
19510;BME280;9896;42.486;26.506;2022-07-29T00:05:51;99828.34;;;21.89;62.20
19510;BME280;9896;42.486;26.506;2022-07-29T00:08:18;99818.91;;;21.76;62.27
19510;BME280;9896;42.486;26.506;2022-07-29T00:10:44;99820.75;;;21.80;62.74
19510;BME280;9896;42.486;26.506;2022-07-29T00:13:09;99832.53;;;21.76;63.54
19510;BME280;9896;42.486;26.506;2022-07-29T00:15:35;99830.53;;;21.38;64.20
19510;BME280;9896;42.486;26.506;2022-07-29T00:18:00;99831.56;;;21.52;64.54
19510;BME280;9896;42.486;26.506;2022-07-29T00:20:26;99824.47;;;21.56;63.96
19510;BME280;9896;42.486;26.506;2022-07-29T00:22:51;99820.72;;;21.37;64.85
19510;BME280;9896;42.486;26.506;2022-07-29T00:25:18;99825.09;;;21.27;65.67
19510;BME280;9896;42.486;26.506;2022-07-29T00:27:44;99821.84;;;21.25;65.04
19510;BME280;9896;42.486;26.506;2022-07-29T00:30:11;99815.00;;;21.33;64.48
19510;BME280;9896;42.486;26.506;2022-07-29T00:32:37;99815.34;;;21.06;64.86
19510;BME280;9896;42.486;26.506;2022-07-29T00:35:03;99811.53;;;21.02;65.46
19510;BME280;9896;42.486;26.506;2022-07-29T00:37:47;99808.25;;;21.10;64.43
19510;BME280;9896;42.486;26.506;2022-07-29T00:40:13;99821.06;;;21.00;65.03
19510;BME280;9896;42.486;26.506;2022-07-29T00:42:46;99822.19;;;20.88;65.51
19510;BME280;9896;42.486;26.506;2022-07-29T00:45:13;99824.06;;;21.03;68.34
19510;BME280;9896;42.486;26.506;2022-07-29T00:47:38;99821.38;;;20.93;69.04
19510;BME280;9896;42.486;26.506;2022-07-29T00:50:05;99814.84;;;20.94;69.68
19510;BME280;9896;42.486;26.506;2022-07-29T00:52:33;99821.34;;;20.98;68.66
19510;BME280;9896;42.486;26.506;2022-07-29T00:54:58;99823.53;;;20.91;66.62
19510;BME280;9896;42.486;26.506;2022-07-29T00:57:25;99815.41;;;20.81;68.00
19510;BME280;9896;42.486;26.506;2022-07-29T00:59:50;99811.25;;;21.19;64.58
19510;BME280;9896;42.486;26.506;2022-07-29T01:02:16;99807.97;;;21.07;65.85
19510;BME280;9896;42.486;26.506;2022-07-29T01:04:41;99804.94;;;21.23;64.02
19510;BME280;9896;42.486;26.506;2022-07-29T01:07:07;99802.72;;;21.36;63.19
19510;BME280;9896;42.486;26.506;2022-07-29T01:09:34;99801.63;;;21.31;61.74
19510;BME280;9896;42.486;26.506;2022-07-29T01:12:01;99801.16;;;21.09;61.85
19510;BME280;9896;42.486;26.506;2022-07-29T01:14:28;99802.81;;;20.95;61.93
19510;BME280;9896;42.486;26.506;2022-07-29T01:30:47;99809.66;;;20.87;63.33
19510;BME280;9896;42.486;26.506;2022-07-29T01:33:16;99793.84;;;20.95;63.19
19510;BME280;9896;42.486;26.506;2022-07-29T01:36:07;99800.06;;;21.05;63.51
19510;BME280;9896;42.486;26.506;2022-07-29T01:38:35;99794.84;;;21.24;63.02
19510;BME280;9896;42.486;26.506;2022-07-29T01:41:09;99799.03;;;20.81;64.47
19510;BME280;9896;42.486;26.506;2022-07-29T01:43:51;99793.28;;;20.93;63.89
19510;BME280;9896;42.486;26.506;2022-07-29T01:46:55;99801.47;;;20.93;63.69
19510;BME280;9896;42.486;26.506;2022-07-29T01:49:25;99794.94;;;20.94;64.27
19510;BME280;9896;42.486;26.506;2022-07-29T01:52:05;99800.16;;;20.55;65.78
19510;BME280;9896;42.486;26.506;2022-07-29T01:54:38;99795.53;;;20.65;64.90
19510;BME280;9896;42.486;26.506;2022-07-29T01:57:09;99793.34;;;20.67;64.95
19510;BME280;9896;42.486;26.506;2022-07-29T01:59:37;99800.72;;;20.52;65.49
19510;BME280;9896;42.486;26.506;2022-07-29T02:02:04;99796.03;;;20.87;64.62
19510;BME280;9896;42.486;26.506;2022-07-29T02:04:35;99803.41;;;20.77;64.75
19510;BME280;9896;42.486;26.506;2022-07-29T02:07:05;99798.47;;;20.94;63.88
19510;BME280;9896;42.486;26.506;2022-07-29T02:09:34;99795.19;;;20.87;64.04
19510;BME280;9896;42.486;26.506;2022-07-29T02:12:02;99785.72;;;20.74;64.54
19510;BME280;9896;42.486;26.506;2022-07-29T02:14:40;99793.84;;;20.79;64.65
19510;BME280;9896;42.486;26.506;2022-07-29T02:17:07;99794.16;;;20.63;64.72
19510;BME280;9896;42.486;26.506;2022-07-29T02:19:34;99792.22;;;20.83;64.03
19510;BME280;9896;42.486;26.506;2022-07-29T02:22:03;99791.38;;;20.88;63.93
19510;BME280;9896;42.486;26.506;2022-07-29T02:24:30;99793.84;;;20.79;64.33
19510;BME280;9896;42.486;26.506;2022-07-29T02:26:57;99795.50;;;20.91;63.91
19510;BME280;9896;42.486;26.506;2022-07-29T02:29:26;99798.25;;;20.50;65.36
19510;BME280;9896;42.486;26.506;2022-07-29T02:31:54;99794.72;;;20.60;65.03
19510;BME280;9896;42.486;26.506;2022-07-29T02:34:21;99801.00;;;20.40;65.78
19510;BME280;9896;42.486;26.506;2022-07-29T02:36:49;99803.41;;;20.26;67.05
19510;BME280;9896;42.486;26.506;2022-07-29T02:39:15;99812.69;;;20.25;67.38
19510;BME280;9896;42.486;26.506;2022-07-29T02:41:47;99804.81;;;20.29;66.67
19510;BME280;9896;42.486;26.506;2022-07-29T02:44:16;99808.88;;;20.16;67.75
19510;BME280;9896;42.486;26.506;2022-07-29T02:46:50;99798.81;;;20.37;66.92
19510;BME280;9896;42.486;26.506;2022-07-29T02:51:55;99803.91;;;19.93;68.51
19510;BME280;9896;42.486;26.506;2022-07-29T02:54:48;99803.13;;;19.87;68.48
19510;BME280;9896;42.486;26.506;2022-07-29T02:57:30;99804.47;;;19.80;68.65
19510;BME280;9896;42.486;26.506;2022-07-29T02:59:58;99797.66;;;19.72;68.88
19510;BME280;9896;42.486;26.506;2022-07-29T03:02:28;99796.81;;;19.77;69.53
19510;BME280;9896;42.486;26.506;2022-07-29T03:04:57;99796.88;;;20.07;68.74
19510;BME280;9896;42.486;26.506;2022-07-29T03:07:24;99785.94;;;19.72;69.32
19510;BME280;9896;42.486;26.506;2022-07-29T03:09:50;99784.03;;;19.77;69.43
19510;BME280;9896;42.486;26.506;2022-07-29T03:12:16;99791.22;;;19.31;71.29
19510;BME280;9896;42.486;26.506;2022-07-29T03:14:43;99779.91;;;19.55;70.39
19510;BME280;9896;42.486;26.506;2022-07-29T03:17:09;99789.78;;;19.91;68.86
19510;BME280;9896;42.486;26.506;2022-07-29T03:19:35;99797.94;;;19.76;69.80
19510;BME280;9896;42.486;26.506;2022-07-29T03:22:01;99797.69;;;20.03;69.16
19510;BME280;9896;42.486;26.506;2022-07-29T03:24:30;99795.50;;;20.10;68.32
19510;BME280;9896;42.486;26.506;2022-07-29T03:26:56;99795.78;;;19.88;69.90
19510;BME280;9896;42.486;26.506;2022-07-29T03:29:23;99797.81;;;19.45;71.31
19510;BME280;9896;42.486;26.506;2022-07-29T03:31:49;99806.03;;;19.56;71.35
19510;BME280;9896;42.486;26.506;2022-07-29T03:34:14;99807.38;;;19.53;71.56
19510;BME280;9896;42.486;26.506;2022-07-29T03:36:39;99805.25;;;19.75;70.20
19510;BME280;9896;42.486;26.506;2022-07-29T03:39:05;99815.03;;;19.66;70.76
19510;BME280;9896;42.486;26.506;2022-07-29T03:41:32;99807.88;;;19.45;71.47
19510;BME280;9896;42.486;26.506;2022-07-29T03:43:59;99826.75;;;19.20;72.72
19510;BME280;9896;42.486;26.506;2022-07-29T03:46:26;99818.31;;;19.68;71.17
19510;BME280;9896;42.486;26.506;2022-07-29T03:48:57;99821.09;;;19.88;70.62
19510;BME280;9896;42.486;26.506;2022-07-29T03:51:24;99824.00;;;19.67;71.16
19510;BME280;9896;42.486;26.506;2022-07-29T03:53:50;99827.59;;;19.82;70.53
19510;BME280;9896;42.486;26.506;2022-07-29T03:56:16;99823.50;;;19.75;70.88
19510;BME280;9896;42.486;26.506;2022-07-29T03:58:46;99816.09;;;19.65;71.05
19510;BME280;9896;42.486;26.506;2022-07-29T04:01:11;99821.06;;;19.83;71.09
19510;BME280;9896;42.486;26.506;2022-07-29T04:03:38;99826.00;;;20.27;69.72
19510;BME280;9896;42.486;26.506;2022-07-29T04:06:06;99826.06;;;20.32;69.49
19510;BME280;9896;42.486;26.506;2022-07-29T04:08:33;99827.94;;;20.16;70.16
19510;BME280;9896;42.486;26.506;2022-07-29T04:10:59;99827.38;;;20.24;69.56
19510;BME280;9896;42.486;26.506;2022-07-29T04:13:25;99823.03;;;20.23;69.76
19510;BME280;9896;42.486;26.506;2022-07-29T04:15:50;99824.66;;;20.19;69.98
19510;BME280;9896;42.486;26.506;2022-07-29T04:18:16;99828.75;;;20.27;69.65
19510;BME280;9896;42.486;26.506;2022-07-29T04:20:41;99830.69;;;20.47;68.52
19510;BME280;9896;42.486;26.506;2022-07-29T04:23:07;99824.41;;;20.31;69.13
19510;BME280;9896;42.486;26.506;2022-07-29T04:25:32;99824.69;;;20.45;68.14
19510;BME280;9896;42.486;26.506;2022-07-29T04:27:58;99829.88;;;20.56;68.74
19510;BME280;9896;42.486;26.506;2022-07-29T04:30:27;99833.91;;;20.23;69.56
19510;BME280;9896;42.486;26.506;2022-07-29T04:32:52;99832.81;;;20.19;70.78
19510;BME280;9896;42.486;26.506;2022-07-29T04:35:19;99826.84;;;20.12;70.77
19510;BME280;9896;42.486;26.506;2022-07-29T04:37:44;99832.22;;;19.97;70.33
19510;BME280;9896;42.486;26.506;2022-07-29T04:40:10;99835.53;;;20.19;69.45
19510;BME280;9896;42.486;26.506;2022-07-29T04:42:37;99828.22;;;20.40;67.71
19510;BME280;9896;42.486;26.506;2022-07-29T04:45:03;99835.59;;;20.60;66.91
19510;BME280;9896;42.486;26.506;2022-07-29T04:47:28;99844.28;;;20.77;65.53
19510;BME280;9896;42.486;26.506;2022-07-29T04:49:54;99841.56;;;20.82;65.19
19510;BME280;9896;42.486;26.506;2022-07-29T04:52:20;99843.47;;;20.66;65.35
19510;BME280;9896;42.486;26.506;2022-07-29T04:54:45;99844.25;;;20.97;64.21
19510;BME280;9896;42.486;26.506;2022-07-29T04:57:14;99845.63;;;20.90;63.07
19510;BME280;9896;42.486;26.506;2022-07-29T04:59:39;99845.59;;;21.20;62.40
19510;BME280;9896;42.486;26.506;2022-07-29T05:02:05;99850.69;;;21.42;61.76
19510;BME280;9896;42.486;26.506;2022-07-29T05:04:30;99852.28;;;21.58;60.90
19510;BME280;9896;42.486;26.506;2022-07-29T05:06:56;99855.97;;;21.82;61.18
19510;BME280;9896;42.486;26.506;2022-07-29T05:09:21;99863.16;;;21.68;61.54
19510;BME280;9896;42.486;26.506;2022-07-29T05:11:47;99854.66;;;21.74;62.17
19510;BME280;9896;42.486;26.506;2022-07-29T05:14:12;99859.28;;;21.79;62.46
19510;BME280;9896;42.486;26.506;2022-07-29T05:16:38;99851.69;;;21.66;62.88
19510;BME280;9896;42.486;26.506;2022-07-29T05:19:05;99868.31;;;21.69;62.96
19510;BME280;9896;42.486;26.506;2022-07-29T05:21:31;99869.69;;;21.72;63.33
19510;BME280;9896;42.486;26.506;2022-07-29T05:23:56;99871.50;;;21.87;62.86
19510;BME280;9896;42.486;26.506;2022-07-29T05:26:22;99866.31;;;21.95;62.68
19510;BME280;9896;42.486;26.506;2022-07-29T05:28:47;99870.78;;;22.59;61.06
19510;BME280;9896;42.486;26.506;2022-07-29T05:31:13;99872.31;;;22.41;61.28
19510;BME280;9896;42.486;26.506;2022-07-29T05:33:40;99877.88;;;22.60;61.24
19510;BME280;9896;42.486;26.506;2022-07-29T05:36:06;99871.56;;;22.64;61.08
19510;BME280;9896;42.486;26.506;2022-07-29T05:38:33;99870.72;;;22.69;60.58
19510;BME280;9896;42.486;26.506;2022-07-29T05:40:59;99875.38;;;22.97;59.75
19510;BME280;9896;42.486;26.506;2022-07-29T05:43:26;99883.56;;;23.26;58.80
19510;BME280;9896;42.486;26.506;2022-07-29T05:45:52;99876.91;;;23.61;57.99
19510;BME280;9896;42.486;26.506;2022-07-29T05:48:17;99881.47;;;23.47;57.79
19510;BME280;9896;42.486;26.506;2022-07-29T05:50:43;99884.91;;;23.76;56.89
19510;BME280;9896;42.486;26.506;2022-07-29T05:53:08;99884.03;;;23.81;56.58
19510;BME280;9896;42.486;26.506;2022-07-29T05:55:34;99891.84;;;23.69;56.47
19510;BME280;9896;42.486;26.506;2022-07-29T05:57:59;99891.63;;;23.65;56.83
19510;BME280;9896;42.486;26.506;2022-07-29T06:00:26;99877.91;;;23.89;56.46
19510;BME280;9896;42.486;26.506;2022-07-29T06:02:51;99876.69;;;23.76;56.77
19510;BME280;9896;42.486;26.506;2022-07-29T06:05:17;99878.41;;;24.15;55.87
19510;BME280;9896;42.486;26.506;2022-07-29T06:07:42;99866.91;;;24.31;54.73
19510;BME280;9896;42.486;26.506;2022-07-29T06:10:08;99878.75;;;24.27;54.79
19510;BME280;9896;42.486;26.506;2022-07-29T06:12:34;99879.44;;;24.19;53.96
19510;BME280;9896;42.486;26.506;2022-07-29T06:14:59;99881.00;;;24.25;53.43
19510;BME280;9896;42.486;26.506;2022-07-29T06:17:25;99873.25;;;24.64;52.90
19510;BME280;9896;42.486;26.506;2022-07-29T06:19:51;99882.59;;;24.95;52.88
19510;BME280;9896;42.486;26.506;2022-07-29T06:22:16;99882.84;;;25.13;52.28
19510;BME280;9896;42.486;26.506;2022-07-29T06:24:42;99879.38;;;25.21;51.05
19510;BME280;9896;42.486;26.506;2022-07-29T06:27:10;99877.06;;;24.82;52.56
19510;BME280;9896;42.486;26.506;2022-07-29T06:29:35;99872.78;;;25.35;51.41
19510;BME280;9896;42.486;26.506;2022-07-29T06:32:01;99875.03;;;25.33;50.50
19510;BME280;9896;42.486;26.506;2022-07-29T06:34:27;99865.25;;;25.14;50.95
19510;BME280;9896;42.486;26.506;2022-07-29T06:36:53;99863.78;;;25.62;49.87
19510;BME280;9896;42.486;26.506;2022-07-29T06:39:18;99870.25;;;25.80;49.74
19510;BME280;9896;42.486;26.506;2022-07-29T06:41:47;99866.88;;;25.97;49.55
19510;BME280;9896;42.486;26.506;2022-07-29T06:44:14;99873.59;;;26.04;49.35
19510;BME280;9896;42.486;26.506;2022-07-29T06:46:39;99874.66;;;25.54;50.80
19510;BME280;9896;42.486;26.506;2022-07-29T06:49:05;99864.16;;;25.56;51.65
19510;BME280;9896;42.486;26.506;2022-07-29T06:51:30;99859.91;;;26.13;49.20
19510;BME280;9896;42.486;26.506;2022-07-29T06:53:56;99851.09;;;26.02;49.92
19510;BME280;9896;42.486;26.506;2022-07-29T06:56:23;99860.50;;;25.74;50.30
19510;BME280;9896;42.486;26.506;2022-07-29T06:58:49;99861.63;;;26.09;49.21
19510;BME280;9896;42.486;26.506;2022-07-29T07:01:16;99851.84;;;26.30;48.86
19510;BME280;9896;42.486;26.506;2022-07-29T07:03:41;99851.16;;;26.24;48.85
19510;BME280;9896;42.486;26.506;2022-07-29T07:06:07;99851.00;;;26.29;48.40
19510;BME280;9896;42.486;26.506;2022-07-29T07:08:33;99854.84;;;26.87;47.24
19510;BME280;9896;42.486;26.506;2022-07-29T07:10:59;99848.41;;;27.22;45.99
19510;BME280;9896;42.486;26.506;2022-07-29T07:13:25;99847.16;;;26.97;45.58
19510;BME280;9896;42.486;26.506;2022-07-29T07:15:51;99853.69;;;27.10;45.26
19510;BME280;9896;42.486;26.506;2022-07-29T07:18:17;99845.31;;;27.54;44.16
19510;BME280;9896;42.486;26.506;2022-07-29T07:20:44;99841.41;;;27.64;43.73
19510;BME280;9896;42.486;26.506;2022-07-29T07:23:10;99849.13;;;28.10;43.29
19510;BME280;9896;42.486;26.506;2022-07-29T07:25:36;99847.66;;;27.95;42.95
19510;BME280;9896;42.486;26.506;2022-07-29T07:28:02;99842.81;;;28.27;42.49
19510;BME280;9896;42.486;26.506;2022-07-29T07:30:28;99839.53;;;28.76;41.00
19510;BME280;9896;42.486;26.506;2022-07-29T07:32:54;99848.34;;;28.35;41.97
19510;BME280;9896;42.486;26.506;2022-07-29T07:35:20;99851.59;;;28.20;42.18
19510;BME280;9896;42.486;26.506;2022-07-29T07:37:46;99847.31;;;27.97;42.83
19510;BME280;9896;42.486;26.506;2022-07-29T07:40:12;99852.56;;;28.15;43.08
19510;BME280;9896;42.486;26.506;2022-07-29T07:42:39;99849.47;;;28.34;41.54
19510;BME280;9896;42.486;26.506;2022-07-29T07:45:05;99850.41;;;28.64;40.67
19510;BME280;9896;42.486;26.506;2022-07-29T07:47:31;99846.34;;;28.70;40.38
19510;BME280;9896;42.486;26.506;2022-07-29T07:49:57;99842.38;;;29.05;39.74
19510;BME280;9896;42.486;26.506;2022-07-29T07:52:23;99838.16;;;29.08;40.08
19510;BME280;9896;42.486;26.506;2022-07-29T07:54:49;99831.03;;;28.98;40.05
19510;BME280;9896;42.486;26.506;2022-07-29T07:57:15;99840.72;;;29.13;39.40
19510;BME280;9896;42.486;26.506;2022-07-29T07:59:41;99839.09;;;29.12;40.57
19510;BME280;9896;42.486;26.506;2022-07-29T08:02:07;99839.09;;;29.59;40.01
19510;BME280;9896;42.486;26.506;2022-07-29T08:04:33;99822.59;;;29.71;39.33
19510;BME280;9896;42.486;26.506;2022-07-29T08:06:59;99829.22;;;29.49;39.71
19510;BME280;9896;42.486;26.506;2022-07-29T08:09:25;99816.94;;;29.88;38.59
19510;BME280;9896;42.486;26.506;2022-07-29T08:11:52;99826.03;;;29.38;39.56
19510;BME280;9896;42.486;26.506;2022-07-29T08:14:18;99813.06;;;29.30;39.81
19510;BME280;9896;42.486;26.506;2022-07-29T08:16:44;99823.63;;;29.20;39.73
19510;BME280;9896;42.486;26.506;2022-07-29T08:19:09;99828.63;;;29.64;38.75
19510;BME280;9896;42.486;26.506;2022-07-29T08:21:35;99818.84;;;29.96;38.30
19510;BME280;9896;42.486;26.506;2022-07-29T08:24:01;99820.38;;;30.26;38.03
19510;BME280;9896;42.486;26.506;2022-07-29T08:26:45;99808.66;;;30.09;38.10
19510;BME280;9896;42.486;26.506;2022-07-29T08:29:11;99822.66;;;29.62;38.81
19510;BME280;9896;42.486;26.506;2022-07-29T08:31:38;99816.84;;;30.59;36.92
19510;BME280;9896;42.486;26.506;2022-07-29T08:34:04;99808.03;;;30.89;36.14
19510;BME280;9896;42.486;26.506;2022-07-29T08:36:30;99813.03;;;30.96;36.11
19510;BME280;9896;42.486;26.506;2022-07-29T08:38:56;99808.03;;;30.89;36.29
19510;BME280;9896;42.486;26.506;2022-07-29T08:41:22;99809.03;;;31.06;36.33
19510;BME280;9896;42.486;26.506;2022-07-29T08:43:48;99803.66;;;30.76;36.80
19510;BME280;9896;42.486;26.506;2022-07-29T08:46:14;99805.91;;;31.19;35.96
19510;BME280;9896;42.486;26.506;2022-07-29T08:48:41;99801.88;;;31.05;36.31
19510;BME280;9896;42.486;26.506;2022-07-29T08:51:07;99797.72;;;31.59;34.86
19510;BME280;9896;42.486;26.506;2022-07-29T08:53:33;99784.53;;;31.44;35.29
19510;BME280;9896;42.486;26.506;2022-07-29T08:55:59;99794.81;;;31.68;34.67
19510;BME280;9896;42.486;26.506;2022-07-29T08:58:26;99801.56;;;32.07;33.74
19510;BME280;9896;42.486;26.506;2022-07-29T09:00:54;99786.09;;;32.34;33.56
19510;BME280;9896;42.486;26.506;2022-07-29T09:03:21;99801.97;;;32.21;33.34
19510;BME280;9896;42.486;26.506;2022-07-29T09:05:48;99797.38;;;32.13;32.87
19510;BME280;9896;42.486;26.506;2022-07-29T09:08:15;99795.84;;;31.75;33.60
19510;BME280;9896;42.486;26.506;2022-07-29T09:10:40;99794.94;;;31.71;33.34
19510;BME280;9896;42.486;26.506;2022-07-29T09:13:06;99792.75;;;31.65;33.94
19510;BME280;9896;42.486;26.506;2022-07-29T09:15:32;99784.59;;;32.36;32.93
19510;BME280;9896;42.486;26.506;2022-07-29T09:17:57;99786.53;;;31.96;32.60
19510;BME280;9896;42.486;26.506;2022-07-29T09:20:28;99777.81;;;32.21;32.90
19510;BME280;9896;42.486;26.506;2022-07-29T09:23:13;99772.13;;;32.30;33.00
19510;BME280;9896;42.486;26.506;2022-07-29T09:25:40;99780.34;;;32.26;32.85
19510;BME280;9896;42.486;26.506;2022-07-29T09:28:11;99788.56;;;31.83;33.22
19510;BME280;9896;42.486;26.506;2022-07-29T09:30:54;99772.91;;;32.03;32.95
19510;BME280;9896;42.486;26.506;2022-07-29T09:33:21;99788.34;;;31.52;33.51
19510;BME280;9896;42.486;26.506;2022-07-29T09:35:58;99779.75;;;31.93;32.77
19510;BME280;9896;42.486;26.506;2022-07-29T09:38:24;99777.41;;;32.07;33.02
19510;BME280;9896;42.486;26.506;2022-07-29T09:40:58;99774.09;;;32.30;32.80
19510;BME280;9896;42.486;26.506;2022-07-29T09:43:24;99776.25;;;31.96;32.76
19510;BME280;9896;42.486;26.506;2022-07-29T09:45:49;99776.13;;;32.05;33.26
19510;BME280;9896;42.486;26.506;2022-07-29T09:48:19;99767.47;;;32.62;32.09
19510;BME280;9896;42.486;26.506;2022-07-29T09:50:46;99772.81;;;32.55;31.90
19510;BME280;9896;42.486;26.506;2022-07-29T09:55:56;99770.81;;;32.40;32.37
19510;BME280;9896;42.486;26.506;2022-07-29T09:58:22;99770.25;;;32.62;31.51
19510;BME280;9896;42.486;26.506;2022-07-29T10:00:49;99764.69;;;32.34;31.90
19510;BME280;9896;42.486;26.506;2022-07-29T10:03:16;99771.97;;;32.39;31.99
19510;BME280;9896;42.486;26.506;2022-07-29T10:05:43;99759.47;;;32.60;31.11
19510;BME280;9896;42.486;26.506;2022-07-29T10:08:09;99770.22;;;32.06;32.56
19510;BME280;9896;42.486;26.506;2022-07-29T10:10:40;99762.63;;;33.37;30.67
19510;BME280;9896;42.486;26.506;2022-07-29T10:13:11;99751.34;;;32.67;31.49
19510;BME280;9896;42.486;26.506;2022-07-29T10:15:40;99757.84;;;32.44;31.76
19510;BME280;9896;42.486;26.506;2022-07-29T10:18:08;99757.66;;;32.52;31.90
19510;BME280;9896;42.486;26.506;2022-07-29T10:20:34;99766.22;;;32.75;31.23
19510;BME280;9896;42.486;26.506;2022-07-29T10:23:00;99758.78;;;32.63;31.85
19510;BME280;9896;42.486;26.506;2022-07-29T10:25:27;99748.22;;;33.51;30.50
19510;BME280;9896;42.486;26.506;2022-07-29T10:27:54;99760.25;;;33.20;30.70
19510;BME280;9896;42.486;26.506;2022-07-29T10:30:21;99758.78;;;33.26;30.94
19510;BME280;9896;42.486;26.506;2022-07-29T10:33:11;99756.28;;;33.05;30.98
19510;BME280;9896;42.486;26.506;2022-07-29T10:36:05;99749.66;;;32.79;31.38
19510;BME280;9896;42.486;26.506;2022-07-29T10:44:39;99739.47;;;33.49;30.35
19510;BME280;9896;42.486;26.506;2022-07-29T10:47:05;99729.84;;;32.80;30.67
19510;BME280;9896;42.486;26.506;2022-07-29T10:49:32;99728.66;;;33.12;30.59
19510;BME280;9896;42.486;26.506;2022-07-29T11:08:16;99723.22;;;33.51;30.17
19510;BME280;9896;42.486;26.506;2022-07-29T11:10:25;99711.53;;;33.61;30.23
19510;BME280;9896;42.486;26.506;2022-07-29T11:12:51;99715.00;;;33.93;29.55
19510;BME280;9896;42.486;26.506;2022-07-29T11:15:21;99712.59;;;34.52;28.50
19510;BME280;9896;42.486;26.506;2022-07-29T11:20:38;99719.66;;;34.08;28.50
19510;BME280;9896;42.486;26.506;2022-07-29T11:23:32;99717.22;;;34.45;28.33
19510;BME280;9896;42.486;26.506;2022-07-29T11:26:17;99711.38;;;34.73;28.14
19510;BME280;9896;42.486;26.506;2022-07-29T11:28:51;99710.16;;;34.70;28.10
19510;BME280;9896;42.486;26.506;2022-07-29T11:31:41;99699.66;;;34.64;28.53
19510;BME280;9896;42.486;26.506;2022-07-29T11:34:22;99708.22;;;34.97;27.87
19510;BME280;9896;42.486;26.506;2022-07-29T11:39:44;99700.09;;;34.43;28.51
19510;BME280;9896;42.486;26.506;2022-07-29T11:50:16;99656.78;;;33.46;29.97
19510;BME280;9896;42.486;26.506;2022-07-29T11:52:45;99687.31;;;34.00;29.10
19510;BME280;9896;42.486;26.506;2022-07-29T11:55:18;99685.56;;;34.11;28.54
19510;BME280;9896;42.486;26.506;2022-07-29T11:58:04;99688.69;;;34.29;28.73
19510;BME280;9896;42.486;26.506;2022-07-29T12:00:33;99677.59;;;33.90;28.34
19510;BME280;9896;42.486;26.506;2022-07-29T12:03:01;99672.03;;;33.90;28.75
19510;BME280;9896;42.486;26.506;2022-07-29T12:08:13;99679.59;;;35.26;26.37
19510;BME280;9896;42.486;26.506;2022-07-29T12:10:40;99681.47;;;34.92;26.64
19510;BME280;9896;42.486;26.506;2022-07-29T12:13:06;99668.81;;;34.98;26.81
19510;BME280;9896;42.486;26.506;2022-07-29T12:15:32;99674.47;;;35.06;26.92
19510;BME280;9896;42.486;26.506;2022-07-29T12:17:58;99678.13;;;35.10;26.75
19510;BME280;9896;42.486;26.506;2022-07-29T12:20:26;99657.03;;;35.09;26.86
19510;BME280;9896;42.486;26.506;2022-07-29T12:22:52;99659.72;;;35.58;26.18
19510;BME280;9896;42.486;26.506;2022-07-29T12:25:19;99659.97;;;35.19;26.55
19510;BME280;9896;42.486;26.506;2022-07-29T12:27:44;99655.91;;;35.13;25.77
19510;BME280;9896;42.486;26.506;2022-07-29T12:30:13;99657.63;;;34.49;26.31
19510;BME280;9896;42.486;26.506;2022-07-29T12:32:43;99662.94;;;34.81;26.30
19510;BME280;9896;42.486;26.506;2022-07-29T12:35:12;99656.75;;;34.91;26.04
19510;BME280;9896;42.486;26.506;2022-07-29T12:37:41;99641.28;;;35.83;25.18
19510;BME280;9896;42.486;26.506;2022-07-29T12:40:09;99624.97;;;35.22;25.50
19510;BME280;9896;42.486;26.506;2022-07-29T12:42:36;99647.59;;;34.90;25.91
19510;BME280;9896;42.486;26.506;2022-07-29T12:45:03;99635.78;;;34.74;26.38
19510;BME280;9896;42.486;26.506;2022-07-29T12:47:29;99638.72;;;35.67;24.70
19510;BME280;9896;42.486;26.506;2022-07-29T12:50:13;99628.38;;;35.38;24.96
19510;BME280;9896;42.486;26.506;2022-07-29T12:52:43;99642.66;;;35.07;25.52
19510;BME280;9896;42.486;26.506;2022-07-29T12:55:09;99634.69;;;35.05;25.72
19510;BME280;9896;42.486;26.506;2022-07-29T12:57:48;99628.66;;;35.03;25.61
19510;BME280;9896;42.486;26.506;2022-07-29T13:00:16;99626.75;;;35.33;25.32
19510;BME280;9896;42.486;26.506;2022-07-29T13:02:54;99629.25;;;35.75;24.45
19510;BME280;9896;42.486;26.506;2022-07-29T13:05:20;99622.13;;;34.92;25.56
19510;BME280;9896;42.486;26.506;2022-07-29T13:07:46;99622.56;;;35.20;25.11
19510;BME280;9896;42.486;26.506;2022-07-29T13:10:19;99624.66;;;35.60;25.01
19510;BME280;9896;42.486;26.506;2022-07-29T13:13:08;99622.56;;;35.83;24.03
19510;BME280;9896;42.486;26.506;2022-07-29T13:15:40;99610.16;;;35.77;24.41
19510;BME280;9896;42.486;26.506;2022-07-29T13:18:32;99613.78;;;35.18;24.62
19510;BME280;9896;42.486;26.506;2022-07-29T13:21:13;99629.56;;;35.37;24.34
19510;BME280;9896;42.486;26.506;2022-07-29T13:23:39;99617.09;;;35.27;24.42
19510;BME280;9896;42.486;26.506;2022-07-29T13:26:09;99610.22;;;36.65;23.31
19510;BME280;9896;42.486;26.506;2022-07-29T13:28:36;99620.44;;;36.07;23.23
19510;BME280;9896;42.486;26.506;2022-07-29T13:31:02;99614.72;;;34.77;24.82
19510;BME280;9896;42.486;26.506;2022-07-29T13:33:27;99611.28;;;36.10;22.92
19510;BME280;9896;42.486;26.506;2022-07-29T13:35:53;99618.38;;;34.81;24.73
19510;BME280;9896;42.486;26.506;2022-07-29T13:38:18;99609.19;;;35.63;24.03
19510;BME280;9896;42.486;26.506;2022-07-29T13:40:44;99612.50;;;35.75;23.62
19510;BME280;9896;42.486;26.506;2022-07-29T13:43:10;99612.72;;;35.93;23.32
19510;BME280;9896;42.486;26.506;2022-07-29T13:45:36;99602.75;;;36.36;22.64
19510;BME280;9896;42.486;26.506;2022-07-29T13:48:02;99601.59;;;37.53;21.51
19510;BME280;9896;42.486;26.506;2022-07-29T13:50:27;99600.22;;;36.64;22.06
19510;BME280;9896;42.486;26.506;2022-07-29T13:52:52;99609.63;;;36.02;22.72
19510;BME280;9896;42.486;26.506;2022-07-29T13:55:18;99608.63;;;36.24;22.64
19510;BME280;9896;42.486;26.506;2022-07-29T13:57:44;99604.66;;;36.69;22.38
19510;BME280;9896;42.486;26.506;2022-07-29T14:00:10;99603.66;;;37.74;21.42
19510;BME280;9896;42.486;26.506;2022-07-29T14:02:36;99599.38;;;37.18;21.90